Weather at London Stansted Airport

Public forecast

Using degrees Celsius for public forecast. Weather courtesy of forecast.io.

Current aviation weather report (METAR) for London Stansted Airport

Retrieved 2020/10/22 03:20 UTC (0 seconds ago):

EGSS 220320Z AUTO 21012KT 9999 BKN015 12/10 Q1004

Aviation forecast (TAF) for London Stansted Airport

Retrieved 2020-10-22 00:00 UTC (3 hours ago):

TAF EGSS 212300Z 2200/2306 22012KT 9999 SCT020 TEMPO 2200/2210 23015G25KT 8000 -RA BKN012 PROB30 TEMPO 2200/2209 4000 RADZ BKN009 TEMPO 2211/2217 6000 SHRA PROB30 TEMPO 2222/2224 3000 +SHRA BKN014 BKN018CB PROB30 TEMPO 2300/2306 3000 +SHRA BKN006 BKN014CB